N838RC VIDP-VIDP
Flight info
| Callsign | N838RC |
|---|---|
| Flight time | 0h 13m |
| Altitude | 8000 |
| Route | ALI6C ALI DCT JAL JAL6A |
| Aircraft | LJ60/M-SDFGILRWYZ/SB1 |
Departure
| Time | 2026-05-06 08:03 |
|---|---|
| Airport | Indira Gandhi International Airport (VIDP) |
Arrival
| Time | 2026-05-06 08:16 |
|---|---|
| Airport | Indira Gandhi International Airport (VIDP) |
| Time | Latitude | Longitude | Altitude | Speed | Heading |
|---|---|---|---|---|---|
| 2026-05-06 07:08 | 28.54849 | 77.09837 | 782 ft | 0 kts | 104° |
| 2026-05-06 07:33 | 28.54851 | 77.09825 | 782 ft | 7 kts | 104° |
| 2026-05-06 07:33 | 28.54857 | 77.09814 | 782 ft | 7 kts | 148° |
| 2026-05-06 07:33 | 28.54868 | 77.09813 | 782 ft | 7 kts | 194° |
| 2026-05-06 07:33 | 28.54869 | 77.09813 | 782 ft | 0 kts | 197° |
| 2026-05-06 07:53 | 28.54865 | 77.09811 | 782 ft | 2 kts | 196° |
| 2026-05-06 07:54 | 28.54839 | 77.09803 | 782 ft | 3 kts | 195° |
| 2026-05-06 07:54 | 28.54806 | 77.09793 | 782 ft | 7 kts | 195° |
| 2026-05-06 07:54 | 28.54765 | 77.09781 | 782 ft | 4 kts | 194° |
| 2026-05-06 07:54 | 28.54743 | 77.09775 | 782 ft | 5 kts | 194° |
| 2026-05-06 07:55 | 28.54692 | 77.09760 | 782 ft | 7 kts | 197° |
| 2026-05-06 07:55 | 28.54675 | 77.09732 | 782 ft | 5 kts | 270° |
| 2026-05-06 07:55 | 28.54692 | 77.09653 | 782 ft | 12 kts | 285° |
| 2026-05-06 07:55 | 28.54711 | 77.09572 | 782 ft | 10 kts | 285° |
| 2026-05-06 07:56 | 28.54729 | 77.09495 | 782 ft | 11 kts | 285° |
| 2026-05-06 07:56 | 28.54752 | 77.09397 | 782 ft | 12 kts | 285° |
| 2026-05-06 07:56 | 28.54774 | 77.09305 | 782 ft | 12 kts | 285° |
| 2026-05-06 07:56 | 28.54790 | 77.09221 | 782 ft | 11 kts | 266° |
| 2026-05-06 07:57 | 28.54757 | 77.09169 | 782 ft | 8 kts | 203° |
| 2026-05-06 07:57 | 28.54726 | 77.09121 | 782 ft | 7 kts | 274° |
| 2026-05-06 07:57 | 28.54747 | 77.09026 | 782 ft | 16 kts | 285° |
| 2026-05-06 07:57 | 28.54779 | 77.08892 | 782 ft | 18 kts | 285° |
| 2026-05-06 07:58 | 28.54812 | 77.08754 | 782 ft | 20 kts | 285° |
| 2026-05-06 07:58 | 28.54851 | 77.08593 | 782 ft | 20 kts | 285° |
| 2026-05-06 07:58 | 28.54886 | 77.08442 | 782 ft | 20 kts | 284° |
| 2026-05-06 07:58 | 28.54921 | 77.08288 | 782 ft | 20 kts | 284° |
| 2026-05-06 07:59 | 28.54957 | 77.08136 | 782 ft | 20 kts | 285° |
| 2026-05-06 07:59 | 28.54994 | 77.07983 | 782 ft | 20 kts | 285° |
| 2026-05-06 07:59 | 28.55029 | 77.07829 | 782 ft | 20 kts | 285° |
| 2026-05-06 07:59 | 28.55065 | 77.07680 | 782 ft | 16 kts | 285° |
| 2026-05-06 08:00 | 28.55058 | 77.07624 | 782 ft | 9 kts | 233° |
| 2026-05-06 08:00 | 28.55011 | 77.07589 | 782 ft | 0 kts | 195° |
| 2026-05-06 08:01 | 28.55009 | 77.07589 | 782 ft | 3 kts | 195° |
| 2026-05-06 08:01 | 28.54953 | 77.07572 | 782 ft | 9 kts | 194° |
| 2026-05-06 08:02 | 28.54905 | 77.07561 | 782 ft | 7 kts | 178° |
| 2026-05-06 08:02 | 28.54860 | 77.07584 | 782 ft | 7 kts | 134° |
| 2026-05-06 08:02 | 28.54839 | 77.07634 | 782 ft | 7 kts | 104° |
| 2026-05-06 08:02 | 28.54826 | 77.07691 | 782 ft | 11 kts | 104° |
| 2026-05-06 08:03 | 28.54771 | 77.07941 | 782 ft | 67 kts | 103° |
| 2026-05-06 08:03 | 28.54585 | 77.08776 | 792 ft | 153 kts | 104° |
| 2026-05-06 08:03 | 28.54272 | 77.10103 | 1542 ft | 187 kts | 105° |
| 2026-05-06 08:03 | 28.53801 | 77.11509 | 2630 ft | 188 kts | 122° |
| 2026-05-06 08:04 | 28.52897 | 77.12522 | 3259 ft | 182 kts | 148° |
| 2026-05-06 08:04 | 28.51712 | 77.12957 | 3688 ft | 178 kts | 178° |
| 2026-05-06 08:04 | 28.50511 | 77.12862 | 4212 ft | 168 kts | 186° |
| 2026-05-06 08:04 | 28.49366 | 77.12750 | 4674 ft | 163 kts | 186° |
| 2026-05-06 08:05 | 28.48257 | 77.12645 | 5107 ft | 157 kts | 186° |
| 2026-05-06 08:05 | 28.47189 | 77.12551 | 5529 ft | 150 kts | 186° |
| 2026-05-06 08:05 | 28.46153 | 77.12440 | 5847 ft | 149 kts | 194° |
| 2026-05-06 08:05 | 28.45314 | 77.11913 | 6284 ft | 129 kts | 226° |
| 2026-05-06 08:06 | 28.44879 | 77.11139 | 6680 ft | 105 kts | 253° |
| 2026-05-06 08:06 | 28.44794 | 77.10350 | 6586 ft | 115 kts | 272° |
| 2026-05-06 08:06 | 28.44829 | 77.09310 | 6632 ft | 145 kts | 278° |
| 2026-05-06 08:06 | 28.45005 | 77.08074 | 6967 ft | 168 kts | 283° |
| 2026-05-06 08:07 | 28.45223 | 77.06915 | 8050 ft | 146 kts | 284° |
| 2026-05-06 08:07 | 28.45471 | 77.05577 | 8025 ft | 197 kts | 284° |
| 2026-05-06 08:07 | 28.45801 | 77.03865 | 7983 ft | 245 kts | 284° |
| 2026-05-06 08:07 | 28.46072 | 77.02505 | 7930 ft | 275 kts | 284° |
| 2026-05-06 08:08 | 28.46700 | 76.99396 | 7895 ft | 323 kts | 285° |
| 2026-05-06 08:08 | 28.47026 | 76.97728 | 7866 ft | 316 kts | 285° |
| 2026-05-06 08:08 | 28.47456 | 76.95351 | 7888 ft | 312 kts | 284° |
| 2026-05-06 08:08 | 28.47862 | 76.93002 | 7878 ft | 285 kts | 284° |
| 2026-05-06 08:09 | 28.48219 | 76.90842 | 7874 ft | 262 kts | 284° |
| 2026-05-06 08:09 | 28.48529 | 76.88895 | 7874 ft | 243 kts | 284° |
| 2026-05-06 08:09 | 28.48822 | 76.87024 | 7878 ft | 236 kts | 282° |
| 2026-05-06 08:09 | 28.49145 | 76.85221 | 7842 ft | 226 kts | 284° |
| 2026-05-06 08:10 | 28.49466 | 76.83530 | 7866 ft | 213 kts | 284° |
| 2026-05-06 08:10 | 28.50003 | 76.82009 | 7787 ft | 208 kts | 304° |
| 2026-05-06 08:10 | 28.51095 | 76.80893 | 7431 ft | 217 kts | 329° |
| 2026-05-06 08:10 | 28.52558 | 76.80393 | 7003 ft | 227 kts | 353° |
| 2026-05-06 08:11 | 28.54160 | 76.80594 | 6567 ft | 237 kts | 12° |
| 2026-05-06 08:11 | 28.55777 | 76.81093 | 6123 ft | 243 kts | 14° |
| 2026-05-06 08:11 | 28.57271 | 76.81976 | 5685 ft | 247 kts | 37° |
| 2026-05-06 08:11 | 28.58297 | 76.83509 | 5245 ft | 245 kts | 63° |
| 2026-05-06 08:12 | 28.58931 | 76.85269 | 4977 ft | 234 kts | 69° |
| 2026-05-06 08:12 | 28.59155 | 76.87046 | 4828 ft | 222 kts | 91° |
| 2026-05-06 08:12 | 28.58920 | 76.88732 | 4692 ft | 211 kts | 101° |
| 2026-05-06 08:12 | 28.58589 | 76.90328 | 4544 ft | 203 kts | 104° |
| 2026-05-06 08:13 | 28.58242 | 76.91869 | 4189 ft | 205 kts | 104° |
| 2026-05-06 08:13 | 28.57887 | 76.93456 | 3685 ft | 205 kts | 104° |
| 2026-05-06 08:13 | 28.57536 | 76.95057 | 3180 ft | 205 kts | 103° |
| 2026-05-06 08:13 | 28.57207 | 76.96587 | 2700 ft | 197 kts | 102° |
| 2026-05-06 08:14 | 28.56910 | 76.98014 | 2432 ft | 172 kts | 102° |
| 2026-05-06 08:14 | 28.56647 | 76.99285 | 2163 ft | 160 kts | 102° |
| 2026-05-06 08:14 | 28.56393 | 77.00507 | 1904 ft | 156 kts | 102° |
| 2026-05-06 08:14 | 28.56146 | 77.01694 | 1650 ft | 153 kts | 102° |
| 2026-05-06 08:15 | 28.55902 | 77.02868 | 1416 ft | 150 kts | 102° |
| 2026-05-06 08:15 | 28.55634 | 77.04000 | 1277 ft | 146 kts | 104° |
| 2026-05-06 08:15 | 28.55377 | 77.05126 | 1130 ft | 147 kts | 103° |
| 2026-05-06 08:15 | 28.55138 | 77.06247 | 1007 ft | 145 kts | 102° |
| 2026-05-06 08:16 | 28.54890 | 77.07366 | 855 ft | 146 kts | 103° |
| 2026-05-06 08:16 | 28.54656 | 77.08431 | 789 ft | 127 kts | 102° |
| 2026-05-06 08:16 | 28.54474 | 77.09284 | 782 ft | 93 kts | 102° |
| 2026-05-06 08:16 | 28.54377 | 77.09811 | 782 ft | 44 kts | 104° |
| 2026-05-06 08:17 | 28.54323 | 77.10046 | 782 ft | 22 kts | 104° |
| 2026-05-06 08:17 | 28.54288 | 77.10206 | 782 ft | 21 kts | 104° |
| 2026-05-06 08:17 | 28.54257 | 77.10349 | 782 ft | 12 kts | 103° |
| 2026-05-06 08:17 | 28.54240 | 77.10434 | 782 ft | 10 kts | 102° |
| 2026-05-06 08:18 | 28.54231 | 77.10512 | 782 ft | 10 kts | 73° |
| 2026-05-06 08:18 | 28.54285 | 77.10555 | 782 ft | 9 kts | 15° |
| 2026-05-06 08:18 | 28.54353 | 77.10576 | 782 ft | 13 kts | 15° |
| 2026-05-06 08:18 | 28.54433 | 77.10598 | 782 ft | 9 kts | 3° |
| 2026-05-06 08:19 | 28.54490 | 77.10547 | 782 ft | 14 kts | 289° |
| 2026-05-06 08:19 | 28.54515 | 77.10444 | 782 ft | 13 kts | 285° |
| 2026-05-06 08:19 | 28.54537 | 77.10355 | 782 ft | 12 kts | 285° |
| 2026-05-06 08:19 | 28.54559 | 77.10259 | 782 ft | 12 kts | 284° |
| 2026-05-06 08:20 | 28.54580 | 77.10168 | 782 ft | 12 kts | 284° |
| 2026-05-06 08:20 | 28.54601 | 77.10075 | 782 ft | 12 kts | 284° |
| 2026-05-06 08:20 | 28.54622 | 77.09982 | 782 ft | 12 kts | 284° |
| 2026-05-06 08:20 | 28.54642 | 77.09889 | 782 ft | 12 kts | 284° |
| 2026-05-06 08:21 | 28.54667 | 77.09781 | 782 ft | 14 kts | 284° |
| 2026-05-06 08:21 | 28.54689 | 77.09684 | 782 ft | 12 kts | 284° |
| 2026-05-06 08:21 | 28.54709 | 77.09607 | 782 ft | 6 kts | 312° |
| 2026-05-06 08:21 | 28.54756 | 77.09611 | 782 ft | 6 kts | 14° |
| 2026-05-06 08:22 | 28.54792 | 77.09622 | 782 ft | 8 kts | 14° |
| 2026-05-06 08:22 | 28.54841 | 77.09636 | 782 ft | 1 kts | 14° |
| 2026-05-06 08:22 | 28.54845 | 77.09637 | 782 ft | 5 kts | 14° |
| 2026-05-06 08:22 | 28.54874 | 77.09628 | 782 ft | 5 kts | 302° |
| 2026-05-06 08:23 | 28.54881 | 77.09604 | 782 ft | 4 kts | 287° |
| 2026-05-06 08:23 | 28.54882 | 77.09600 | 782 ft | 0 kts | 287° |
| 2026-05-06 08:23 | 28.54883 | 77.09599 | 782 ft | 0 kts | 287° |